sensor_id;sensor_type;location;lat;lon;timestamp;temperature;humidity
9437;DHT22;4757;59.334;18.034;2023-05-23T00:01:41;13.50;99.90
9437;DHT22;4757;59.334;18.034;2023-05-23T00:04:11;13.40;99.90
9437;DHT22;4757;59.334;18.034;2023-05-23T00:06:44;13.40;99.90
9437;DHT22;4757;59.334;18.034;2023-05-23T00:09:13;13.50;99.90
9437;DHT22;4757;59.334;18.034;2023-05-23T00:11:41;13.40;99.90
9437;DHT22;4757;59.334;18.034;2023-05-23T00:14:12;13.40;99.90
9437;DHT22;4757;59.334;18.034;2023-05-23T00:16:40;13.30;99.90
9437;DHT22;4757;59.334;18.034;2023-05-23T00:19:12;13.20;99.90
9437;DHT22;4757;59.334;18.034;2023-05-23T00:21:45;13.20;99.90
9437;DHT22;4757;59.334;18.034;2023-05-23T00:24:14;13.20;99.90
9437;DHT22;4757;59.334;18.034;2023-05-23T00:26:45;13.20;99.90
9437;DHT22;4757;59.334;18.034;2023-05-23T00:29:14;13.20;99.90
9437;DHT22;4757;59.334;18.034;2023-05-23T00:31:43;13.20;99.90
9437;DHT22;4757;59.334;18.034;2023-05-23T00:34:13;13.30;99.90
9437;DHT22;4757;59.334;18.034;2023-05-23T00:36:40;13.10;99.90
9437;DHT22;4757;59.334;18.034;2023-05-23T00:39:09;13.10;99.90
9437;DHT22;4757;59.334;18.034;2023-05-23T00:41:49;13.10;99.90
9437;DHT22;4757;59.334;18.034;2023-05-23T00:44:19;13.10;99.90
9437;DHT22;4757;59.334;18.034;2023-05-23T00:46:51;13.20;99.90
9437;DHT22;4757;59.334;18.034;2023-05-23T00:49:19;13.30;99.90
9437;DHT22;4757;59.334;18.034;2023-05-23T00:51:47;13.20;99.90
9437;DHT22;4757;59.334;18.034;2023-05-23T00:54:37;13.10;99.90
9437;DHT22;4757;59.334;18.034;2023-05-23T00:57:05;13.10;99.90
9437;DHT22;4757;59.334;18.034;2023-05-23T00:59:32;13.00;99.90
9437;DHT22;4757;59.334;18.034;2023-05-23T01:02:01;13.00;99.90
9437;DHT22;4757;59.334;18.034;2023-05-23T01:04:30;13.00;99.90
9437;DHT22;4757;59.334;18.034;2023-05-23T01:07:00;13.00;99.90
9437;DHT22;4757;59.334;18.034;2023-05-23T01:09:27;12.90;99.90
9437;DHT22;4757;59.334;18.034;2023-05-23T01:14:50;13.00;99.90
9437;DHT22;4757;59.334;18.034;2023-05-23T01:17:32;13.00;99.90
9437;DHT22;4757;59.334;18.034;2023-05-23T01:20:08;13.00;99.90
9437;DHT22;4757;59.334;18.034;2023-05-23T01:22:58;12.90;99.90
9437;DHT22;4757;59.334;18.034;2023-05-23T01:28:36;13.00;99.90
9437;DHT22;4757;59.334;18.034;2023-05-23T01:31:07;13.00;99.90
9437;DHT22;4757;59.334;18.034;2023-05-23T01:33:38;12.90;99.90
9437;DHT22;4757;59.334;18.034;2023-05-23T01:36:06;12.90;99.90
9437;DHT22;4757;59.334;18.034;2023-05-23T01:38:33;12.90;99.90
9437;DHT22;4757;59.334;18.034;2023-05-23T01:41:00;12.90;99.90
9437;DHT22;4757;59.334;18.034;2023-05-23T01:43:28;12.90;99.90
9437;DHT22;4757;59.334;18.034;2023-05-23T01:45:55;13.00;99.90
9437;DHT22;4757;59.334;18.034;2023-05-23T01:48:25;13.00;99.90
9437;DHT22;4757;59.334;18.034;2023-05-23T01:50:53;13.00;99.90
9437;DHT22;4757;59.334;18.034;2023-05-23T01:53:22;13.00;99.90
9437;DHT22;4757;59.334;18.034;2023-05-23T01:55:50;12.90;99.90
9437;DHT22;4757;59.334;18.034;2023-05-23T01:58:17;12.90;99.90
9437;DHT22;4757;59.334;18.034;2023-05-23T02:00:45;12.90;99.90
9437;DHT22;4757;59.334;18.034;2023-05-23T02:03:12;12.90;99.90
9437;DHT22;4757;59.334;18.034;2023-05-23T02:05:39;12.90;99.90
9437;DHT22;4757;59.334;18.034;2023-05-23T02:08:07;12.90;99.90
9437;DHT22;4757;59.334;18.034;2023-05-23T02:10:34;12.80;99.90
9437;DHT22;4757;59.334;18.034;2023-05-23T02:13:01;12.80;99.90
9437;DHT22;4757;59.334;18.034;2023-05-23T02:15:28;12.80;99.90
9437;DHT22;4757;59.334;18.034;2023-05-23T02:17:55;12.80;99.90
9437;DHT22;4757;59.334;18.034;2023-05-23T02:20:22;12.60;99.90
9437;DHT22;4757;59.334;18.034;2023-05-23T02:22:49;12.70;99.90
9437;DHT22;4757;59.334;18.034;2023-05-23T02:25:17;12.70;99.90
9437;DHT22;4757;59.334;18.034;2023-05-23T02:27:44;12.80;99.90
9437;DHT22;4757;59.334;18.034;2023-05-23T02:30:11;12.80;99.90
9437;DHT22;4757;59.334;18.034;2023-05-23T02:32:38;12.80;99.90
9437;DHT22;4757;59.334;18.034;2023-05-23T02:35:05;12.80;99.90
9437;DHT22;4757;59.334;18.034;2023-05-23T02:37:33;12.90;99.90
9437;DHT22;4757;59.334;18.034;2023-05-23T02:40:00;12.90;99.90
9437;DHT22;4757;59.334;18.034;2023-05-23T02:42:27;13.00;99.90
9437;DHT22;4757;59.334;18.034;2023-05-23T02:44:54;13.00;99.90
9437;DHT22;4757;59.334;18.034;2023-05-23T02:47:21;13.00;99.90
9437;DHT22;4757;59.334;18.034;2023-05-23T02:49:48;13.00;99.90
9437;DHT22;4757;59.334;18.034;2023-05-23T02:52:15;13.10;99.90
9437;DHT22;4757;59.334;18.034;2023-05-23T02:54:43;13.10;99.90
9437;DHT22;4757;59.334;18.034;2023-05-23T02:57:10;13.10;99.90
9437;DHT22;4757;59.334;18.034;2023-05-23T02:59:37;13.00;99.90
9437;DHT22;4757;59.334;18.034;2023-05-23T03:02:04;13.00;99.90
9437;DHT22;4757;59.334;18.034;2023-05-23T03:04:32;13.00;99.90
9437;DHT22;4757;59.334;18.034;2023-05-23T03:06:59;13.00;99.90
9437;DHT22;4757;59.334;18.034;2023-05-23T03:09:26;13.00;99.90
9437;DHT22;4757;59.334;18.034;2023-05-23T03:11:53;13.00;99.90
9437;DHT22;4757;59.334;18.034;2023-05-23T03:14:20;12.90;99.90
9437;DHT22;4757;59.334;18.034;2023-05-23T03:16:47;12.90;99.90
9437;DHT22;4757;59.334;18.034;2023-05-23T03:19:15;13.00;99.90
9437;DHT22;4757;59.334;18.034;2023-05-23T03:21:43;12.90;99.90
9437;DHT22;4757;59.334;18.034;2023-05-23T03:24:10;12.90;99.90
9437;DHT22;4757;59.334;18.034;2023-05-23T03:26:37;12.90;99.90
9437;DHT22;4757;59.334;18.034;2023-05-23T03:29:04;12.80;99.90
9437;DHT22;4757;59.334;18.034;2023-05-23T03:31:32;12.70;99.90
9437;DHT22;4757;59.334;18.034;2023-05-23T03:33:59;12.70;99.90
9437;DHT22;4757;59.334;18.034;2023-05-23T03:36:26;12.80;99.90
9437;DHT22;4757;59.334;18.034;2023-05-23T03:38:54;12.70;99.90
9437;DHT22;4757;59.334;18.034;2023-05-23T03:41:21;12.80;99.90
9437;DHT22;4757;59.334;18.034;2023-05-23T03:43:48;12.80;99.90
9437;DHT22;4757;59.334;18.034;2023-05-23T03:46:15;12.90;99.90
9437;DHT22;4757;59.334;18.034;2023-05-23T03:48:43;12.90;99.90
9437;DHT22;4757;59.334;18.034;2023-05-23T03:51:10;13.00;99.90
9437;DHT22;4757;59.334;18.034;2023-05-23T03:53:39;13.00;99.90
9437;DHT22;4757;59.334;18.034;2023-05-23T03:56:06;13.00;99.90
9437;DHT22;4757;59.334;18.034;2023-05-23T03:58:33;13.10;99.90
9437;DHT22;4757;59.334;18.034;2023-05-23T04:01:01;13.10;99.90
9437;DHT22;4757;59.334;18.034;2023-05-23T04:03:29;13.20;99.90
9437;DHT22;4757;59.334;18.034;2023-05-23T04:06:01;13.20;99.90
9437;DHT22;4757;59.334;18.034;2023-05-23T04:08:28;13.20;99.90
9437;DHT22;4757;59.334;18.034;2023-05-23T04:11:00;13.20;99.90
9437;DHT22;4757;59.334;18.034;2023-05-23T04:13:27;13.20;99.90
9437;DHT22;4757;59.334;18.034;2023-05-23T04:15:57;13.30;99.90
9437;DHT22;4757;59.334;18.034;2023-05-23T04:18:27;13.30;99.90
9437;DHT22;4757;59.334;18.034;2023-05-23T04:20:54;13.30;99.90
9437;DHT22;4757;59.334;18.034;2023-05-23T04:23:21;13.40;99.90
9437;DHT22;4757;59.334;18.034;2023-05-23T04:25:48;13.40;99.90
9437;DHT22;4757;59.334;18.034;2023-05-23T04:28:15;13.40;99.90
9437;DHT22;4757;59.334;18.034;2023-05-23T04:30:43;13.40;99.90
9437;DHT22;4757;59.334;18.034;2023-05-23T04:33:10;13.40;99.90
9437;DHT22;4757;59.334;18.034;2023-05-23T04:35:39;13.60;99.90
9437;DHT22;4757;59.334;18.034;2023-05-23T04:38:06;13.80;99.90
9437;DHT22;4757;59.334;18.034;2023-05-23T04:40:34;14.10;99.90
9437;DHT22;4757;59.334;18.034;2023-05-23T04:43:01;14.20;99.90
9437;DHT22;4757;59.334;18.034;2023-05-23T04:45:40;14.20;99.90
9437;DHT22;4757;59.334;18.034;2023-05-23T04:48:08;14.30;99.90
9437;DHT22;4757;59.334;18.034;2023-05-23T04:50:35;14.40;99.90
9437;DHT22;4757;59.334;18.034;2023-05-23T04:53:03;14.50;99.90
9437;DHT22;4757;59.334;18.034;2023-05-23T04:55:31;14.60;99.90
9437;DHT22;4757;59.334;18.034;2023-05-23T04:57:58;14.60;99.90
9437;DHT22;4757;59.334;18.034;2023-05-23T05:00:25;14.60;99.90
9437;DHT22;4757;59.334;18.034;2023-05-23T05:02:52;14.70;99.90
9437;DHT22;4757;59.334;18.034;2023-05-23T05:05:20;14.90;99.90
9437;DHT22;4757;59.334;18.034;2023-05-23T05:07:47;15.10;99.90
9437;DHT22;4757;59.334;18.034;2023-05-23T05:10:14;15.30;99.90
9437;DHT22;4757;59.334;18.034;2023-05-23T05:12:46;15.50;99.90
9437;DHT22;4757;59.334;18.034;2023-05-23T05:15:17;15.40;99.90
9437;DHT22;4757;59.334;18.034;2023-05-23T05:17:45;15.40;99.90
9437;DHT22;4757;59.334;18.034;2023-05-23T05:20:15;15.50;99.90
9437;DHT22;4757;59.334;18.034;2023-05-23T05:22:44;15.70;99.90
9437;DHT22;4757;59.334;18.034;2023-05-23T05:25:12;16.00;99.90
9437;DHT22;4757;59.334;18.034;2023-05-23T05:27:39;16.10;99.90
9437;DHT22;4757;59.334;18.034;2023-05-23T05:30:07;16.30;99.90
9437;DHT22;4757;59.334;18.034;2023-05-23T05:32:34;16.30;99.90
9437;DHT22;4757;59.334;18.034;2023-05-23T05:35:02;16.40;99.90
9437;DHT22;4757;59.334;18.034;2023-05-23T05:37:30;16.50;99.90
9437;DHT22;4757;59.334;18.034;2023-05-23T05:39:59;16.70;99.90
9437;DHT22;4757;59.334;18.034;2023-05-23T05:42:35;16.70;99.90
9437;DHT22;4757;59.334;18.034;2023-05-23T05:45:03;16.80;99.90
9437;DHT22;4757;59.334;18.034;2023-05-23T05:47:30;17.00;99.90
9437;DHT22;4757;59.334;18.034;2023-05-23T05:49:57;17.10;99.90
9437;DHT22;4757;59.334;18.034;2023-05-23T05:52:24;17.20;99.90
9437;DHT22;4757;59.334;18.034;2023-05-23T05:54:51;17.30;99.90
9437;DHT22;4757;59.334;18.034;2023-05-23T05:57:27;17.20;99.90
9437;DHT22;4757;59.334;18.034;2023-05-23T05:59:55;17.20;99.90
9437;DHT22;4757;59.334;18.034;2023-05-23T06:02:22;17.30;99.90
9437;DHT22;4757;59.334;18.034;2023-05-23T06:04:49;17.50;99.70
9437;DHT22;4757;59.334;18.034;2023-05-23T06:07:17;17.60;99.60
9437;DHT22;4757;59.334;18.034;2023-05-23T06:09:44;17.70;99.40
9437;DHT22;4757;59.334;18.034;2023-05-23T06:12:11;17.70;99.20
9437;DHT22;4757;59.334;18.034;2023-05-23T06:14:38;17.90;99.20
9437;DHT22;4757;59.334;18.034;2023-05-23T06:17:06;18.10;98.80
9437;DHT22;4757;59.334;18.034;2023-05-23T06:19:33;18.20;98.40
9437;DHT22;4757;59.334;18.034;2023-05-23T06:22:00;18.30;98.10
9437;DHT22;4757;59.334;18.034;2023-05-23T06:24:27;18.40;97.90
9437;DHT22;4757;59.334;18.034;2023-05-23T06:26:55;18.60;97.90
9437;DHT22;4757;59.334;18.034;2023-05-23T06:29:23;18.70;97.80
9437;DHT22;4757;59.334;18.034;2023-05-23T06:31:50;18.70;97.90
9437;DHT22;4757;59.334;18.034;2023-05-23T06:34:17;18.80;97.90
9437;DHT22;4757;59.334;18.034;2023-05-23T06:36:44;18.80;97.80
9437;DHT22;4757;59.334;18.034;2023-05-23T06:39:21;18.80;97.60
9437;DHT22;4757;59.334;18.034;2023-05-23T06:41:48;19.00;97.90
9437;DHT22;4757;59.334;18.034;2023-05-23T06:44:21;19.10;97.70
9437;DHT22;4757;59.334;18.034;2023-05-23T06:46:55;19.80;97.10
9437;DHT22;4757;59.334;18.034;2023-05-23T06:49:27;20.80;96.10
9437;DHT22;4757;59.334;18.034;2023-05-23T06:51:55;21.70;95.20
9437;DHT22;4757;59.334;18.034;2023-05-23T06:54:22;21.50;94.20
9437;DHT22;4757;59.334;18.034;2023-05-23T06:56:49;21.80;94.00
9437;DHT22;4757;59.334;18.034;2023-05-23T06:59:16;22.60;93.30
9437;DHT22;4757;59.334;18.034;2023-05-23T07:01:43;23.20;92.80
9437;DHT22;4757;59.334;18.034;2023-05-23T07:04:10;23.50;92.60
9437;DHT22;4757;59.334;18.034;2023-05-23T07:06:38;23.70;92.00
9437;DHT22;4757;59.334;18.034;2023-05-23T07:09:05;23.60;92.30
9437;DHT22;4757;59.334;18.034;2023-05-23T07:11:32;23.80;91.50
9437;DHT22;4757;59.334;18.034;2023-05-23T07:14:01;24.10;91.20
9437;DHT22;4757;59.334;18.034;2023-05-23T07:16:28;24.40;91.30
9437;DHT22;4757;59.334;18.034;2023-05-23T07:18:55;24.80;90.40
9437;DHT22;4757;59.334;18.034;2023-05-23T07:21:22;24.70;90.50
9437;DHT22;4757;59.334;18.034;2023-05-23T07:23:49;23.70;90.80
9437;DHT22;4757;59.334;18.034;2023-05-23T07:26:16;23.00;90.60
9437;DHT22;4757;59.334;18.034;2023-05-23T07:28:43;23.20;90.70
9437;DHT22;4757;59.334;18.034;2023-05-23T07:31:11;24.30;90.20
9437;DHT22;4757;59.334;18.034;2023-05-23T07:33:39;24.70;88.60
9437;DHT22;4757;59.334;18.034;2023-05-23T07:36:06;24.60;89.00
9437;DHT22;4757;59.334;18.034;2023-05-23T07:38:33;23.80;88.80
9437;DHT22;4757;59.334;18.034;2023-05-23T07:41:01;23.60;89.30
9437;DHT22;4757;59.334;18.034;2023-05-23T07:43:37;23.30;89.90
9437;DHT22;4757;59.334;18.034;2023-05-23T07:46:05;24.20;89.10
9437;DHT22;4757;59.334;18.034;2023-05-23T07:48:32;24.70;88.20
9437;DHT22;4757;59.334;18.034;2023-05-23T07:50:59;25.30;87.00
9437;DHT22;4757;59.334;18.034;2023-05-23T07:53:27;25.60;86.80
9437;DHT22;4757;59.334;18.034;2023-05-23T07:55:54;25.90;87.10
9437;DHT22;4757;59.334;18.034;2023-05-23T07:58:21;25.40;87.60
9437;DHT22;4757;59.334;18.034;2023-05-23T08:00:49;24.80;89.80
9437;DHT22;4757;59.334;18.034;2023-05-23T08:03:18;25.80;88.20
9437;DHT22;4757;59.334;18.034;2023-05-23T08:05:46;25.60;88.10
9437;DHT22;4757;59.334;18.034;2023-05-23T08:08:13;25.40;85.50
9437;DHT22;4757;59.334;18.034;2023-05-23T08:10:40;25.30;84.70
9437;DHT22;4757;59.334;18.034;2023-05-23T08:13:10;26.00;83.80
9437;DHT22;4757;59.334;18.034;2023-05-23T08:15:38;26.10;83.10
9437;DHT22;4757;59.334;18.034;2023-05-23T08:18:05;26.00;82.10
9437;DHT22;4757;59.334;18.034;2023-05-23T08:20:32;26.30;82.20
9437;DHT22;4757;59.334;18.034;2023-05-23T08:23:02;26.40;81.00
9437;DHT22;4757;59.334;18.034;2023-05-23T08:25:29;26.20;81.50
9437;DHT22;4757;59.334;18.034;2023-05-23T08:27:58;25.80;81.80
9437;DHT22;4757;59.334;18.034;2023-05-23T08:30:26;25.90;81.30
9437;DHT22;4757;59.334;18.034;2023-05-23T08:32:55;25.10;82.10
9437;DHT22;4757;59.334;18.034;2023-05-23T08:35:22;25.90;81.90
9437;DHT22;4757;59.334;18.034;2023-05-23T08:37:50;26.20;81.60
9437;DHT22;4757;59.334;18.034;2023-05-23T08:40:21;26.60;81.00
9437;DHT22;4757;59.334;18.034;2023-05-23T08:42:49;26.10;80.80
9437;DHT22;4757;59.334;18.034;2023-05-23T08:45:17;24.00;83.60
9437;DHT22;4757;59.334;18.034;2023-05-23T08:47:45;24.30;83.90
9437;DHT22;4757;59.334;18.034;2023-05-23T08:50:15;25.00;83.00
9437;DHT22;4757;59.334;18.034;2023-05-23T08:52:56;25.20;82.70
9437;DHT22;4757;59.334;18.034;2023-05-23T08:55:27;26.00;80.70
9437;DHT22;4757;59.334;18.034;2023-05-23T08:57:55;26.20;79.90
9437;DHT22;4757;59.334;18.034;2023-05-23T09:00:24;25.60;80.50
9437;DHT22;4757;59.334;18.034;2023-05-23T09:02:51;26.20;79.40
9437;DHT22;4757;59.334;18.034;2023-05-23T09:05:20;26.20;78.70
9437;DHT22;4757;59.334;18.034;2023-05-23T09:07:48;25.80;79.40
9437;DHT22;4757;59.334;18.034;2023-05-23T09:10:18;26.40;77.30
9437;DHT22;4757;59.334;18.034;2023-05-23T09:12:48;27.30;75.90
9437;DHT22;4757;59.334;18.034;2023-05-23T09:15:15;28.00;75.40
9437;DHT22;4757;59.334;18.034;2023-05-23T09:17:44;28.60;75.30
9437;DHT22;4757;59.334;18.034;2023-05-23T09:20:15;28.40;74.30
9437;DHT22;4757;59.334;18.034;2023-05-23T09:22:46;28.30;73.70
9437;DHT22;4757;59.334;18.034;2023-05-23T09:25:14;27.90;73.90
9437;DHT22;4757;59.334;18.034;2023-05-23T09:27:42;27.70;74.10
9437;DHT22;4757;59.334;18.034;2023-05-23T09:30:13;26.60;75.80
9437;DHT22;4757;59.334;18.034;2023-05-23T09:32:41;26.00;77.00
9437;DHT22;4757;59.334;18.034;2023-05-23T09:35:08;27.30;76.00
9437;DHT22;4757;59.334;18.034;2023-05-23T09:37:43;28.20;74.40
9437;DHT22;4757;59.334;18.034;2023-05-23T09:40:13;28.50;74.40
9437;DHT22;4757;59.334;18.034;2023-05-23T09:42:43;27.80;75.20
9437;DHT22;4757;59.334;18.034;2023-05-23T09:45:11;27.80;74.30
9437;DHT22;4757;59.334;18.034;2023-05-23T09:47:38;28.20;74.90
9437;DHT22;4757;59.334;18.034;2023-05-23T09:50:06;27.90;74.90
9437;DHT22;4757;59.334;18.034;2023-05-23T09:52:37;28.00;74.20
9437;DHT22;4757;59.334;18.034;2023-05-23T09:55:05;27.20;74.40
9437;DHT22;4757;59.334;18.034;2023-05-23T09:57:40;28.00;73.50
9437;DHT22;4757;59.334;18.034;2023-05-23T10:00:09;27.70;74.00
9437;DHT22;4757;59.334;18.034;2023-05-23T10:08:37;28.50;72.20
9437;DHT22;4757;59.334;18.034;2023-05-23T10:13:44;25.70;73.70
9437;DHT22;4757;59.334;18.034;2023-05-23T10:16:20;26.10;73.20
9437;DHT22;4757;59.334;18.034;2023-05-23T10:18:58;27.10;70.50
9437;DHT22;4757;59.334;18.034;2023-05-23T10:21:32;28.10;69.80
9437;DHT22;4757;59.334;18.034;2023-05-23T10:24:03;27.80;69.60
9437;DHT22;4757;59.334;18.034;2023-05-23T10:26:30;27.50;70.10
9437;DHT22;4757;59.334;18.034;2023-05-23T10:28:58;28.00;69.30
9437;DHT22;4757;59.334;18.034;2023-05-23T10:31:27;27.80;67.70
9437;DHT22;4757;59.334;18.034;2023-05-23T10:36:59;27.30;69.70
9437;DHT22;4757;59.334;18.034;2023-05-23T10:42:43;28.50;68.70
9437;DHT22;4757;59.334;18.034;2023-05-23T10:47:42;26.70;72.70
9437;DHT22;4757;59.334;18.034;2023-05-23T10:50:14;26.90;73.70
9437;DHT22;4757;59.334;18.034;2023-05-23T10:52:43;27.70;73.00
9437;DHT22;4757;59.334;18.034;2023-05-23T10:55:14;28.20;72.60
9437;DHT22;4757;59.334;18.034;2023-05-23T10:57:43;26.70;72.40
9437;DHT22;4757;59.334;18.034;2023-05-23T11:00:15;27.50;71.50
9437;DHT22;4757;59.334;18.034;2023-05-23T11:02:59;28.10;70.80
9437;DHT22;4757;59.334;18.034;2023-05-23T11:05:28;28.00;70.50
9437;DHT22;4757;59.334;18.034;2023-05-23T11:08:13;27.70;70.30
9437;DHT22;4757;59.334;18.034;2023-05-23T11:11:00;27.80;68.30
9437;DHT22;4757;59.334;18.034;2023-05-23T11:13:53;26.90;69.00
9437;DHT22;4757;59.334;18.034;2023-05-23T11:16:41;26.40;66.90
9437;DHT22;4757;59.334;18.034;2023-05-23T11:21:59;25.90;70.00
9437;DHT22;4757;59.334;18.034;2023-05-23T11:24:50;26.00;70.10
9437;DHT22;4757;59.334;18.034;2023-05-23T11:27:31;26.00;68.60
9437;DHT22;4757;59.334;18.034;2023-05-23T11:32:30;25.80;69.50
9437;DHT22;4757;59.334;18.034;2023-05-23T11:35:02;26.10;69.70
9437;DHT22;4757;59.334;18.034;2023-05-23T11:37:30;26.40;69.10
9437;DHT22;4757;59.334;18.034;2023-05-23T11:39:57;26.50;68.50
9437;DHT22;4757;59.334;18.034;2023-05-23T11:42:25;26.10;68.40
9437;DHT22;4757;59.334;18.034;2023-05-23T11:44:53;26.50;68.20
9437;DHT22;4757;59.334;18.034;2023-05-23T11:47:20;25.10;69.50
9437;DHT22;4757;59.334;18.034;2023-05-23T11:49:47;26.10;68.70
9437;DHT22;4757;59.334;18.034;2023-05-23T11:52:14;25.50;68.80
9437;DHT22;4757;59.334;18.034;2023-05-23T11:54:42;26.00;68.50
9437;DHT22;4757;59.334;18.034;2023-05-23T11:57:10;26.30;67.90
9437;DHT22;4757;59.334;18.034;2023-05-23T11:59:39;25.80;68.80
9437;DHT22;4757;59.334;18.034;2023-05-23T12:02:07;25.90;69.00
9437;DHT22;4757;59.334;18.034;2023-05-23T12:04:35;25.90;69.30
9437;DHT22;4757;59.334;18.034;2023-05-23T12:07:05;25.90;69.10
9437;DHT22;4757;59.334;18.034;2023-05-23T12:09:41;25.90;68.70
9437;DHT22;4757;59.334;18.034;2023-05-23T12:12:09;25.30;69.70
9437;DHT22;4757;59.334;18.034;2023-05-23T12:14:36;25.70;68.90
9437;DHT22;4757;59.334;18.034;2023-05-23T12:17:11;25.80;69.40
9437;DHT22;4757;59.334;18.034;2023-05-23T12:19:44;25.70;69.00
9437;DHT22;4757;59.334;18.034;2023-05-23T12:22:11;25.20;69.00
9437;DHT22;4757;59.334;18.034;2023-05-23T12:24:44;25.30;69.40
9437;DHT22;4757;59.334;18.034;2023-05-23T12:27:18;25.30;70.50
9437;DHT22;4757;59.334;18.034;2023-05-23T12:29:49;25.30;69.70
9437;DHT22;4757;59.334;18.034;2023-05-23T12:32:18;25.30;69.70
9437;DHT22;4757;59.334;18.034;2023-05-23T12:34:45;25.70;69.70
9437;DHT22;4757;59.334;18.034;2023-05-23T12:37:12;25.60;69.50
9437;DHT22;4757;59.334;18.034;2023-05-23T12:39:43;25.40;70.70
9437;DHT22;4757;59.334;18.034;2023-05-23T12:42:11;25.80;70.10
9437;DHT22;4757;59.334;18.034;2023-05-23T12:44:40;25.50;69.80
9437;DHT22;4757;59.334;18.034;2023-05-23T12:47:09;25.90;69.80
9437;DHT22;4757;59.334;18.034;2023-05-23T12:49:37;25.80;68.80
9437;DHT22;4757;59.334;18.034;2023-05-23T12:52:04;25.40;68.90
9437;DHT22;4757;59.334;18.034;2023-05-23T12:54:31;25.30;69.20
9437;DHT22;4757;59.334;18.034;2023-05-23T12:56:59;25.80;68.50
9437;DHT22;4757;59.334;18.034;2023-05-23T12:59:26;25.80;68.90
9437;DHT22;4757;59.334;18.034;2023-05-23T13:01:53;25.80;70.10
9437;DHT22;4757;59.334;18.034;2023-05-23T13:04:20;25.60;68.70
9437;DHT22;4757;59.334;18.034;2023-05-23T13:06:48;26.10;69.00
9437;DHT22;4757;59.334;18.034;2023-05-23T13:09:15;26.00;68.30
9437;DHT22;4757;59.334;18.034;2023-05-23T13:11:43;25.70;70.40
9437;DHT22;4757;59.334;18.034;2023-05-23T13:14:11;25.90;70.10
9437;DHT22;4757;59.334;18.034;2023-05-23T13:16:56;25.80;69.70
9437;DHT22;4757;59.334;18.034;2023-05-23T13:19:23;25.00;70.40
9437;DHT22;4757;59.334;18.034;2023-05-23T13:21:53;25.30;70.10
9437;DHT22;4757;59.334;18.034;2023-05-23T13:24:26;25.10;69.80
9437;DHT22;4757;59.334;18.034;2023-05-23T13:26:53;25.30;70.60
9437;DHT22;4757;59.334;18.034;2023-05-23T13:29:21;25.00;71.50
9437;DHT22;4757;59.334;18.034;2023-05-23T13:31:49;24.90;71.60
9437;DHT22;4757;59.334;18.034;2023-05-23T13:34:22;24.50;71.80
9437;DHT22;4757;59.334;18.034;2023-05-23T13:37:01;24.40;72.00
9437;DHT22;4757;59.334;18.034;2023-05-23T13:39:28;24.30;71.70
9437;DHT22;4757;59.334;18.034;2023-05-23T13:41:55;23.90;72.40
9437;DHT22;4757;59.334;18.034;2023-05-23T13:44:22;24.10;72.30
9437;DHT22;4757;59.334;18.034;2023-05-23T13:46:53;23.60;74.00
9437;DHT22;4757;59.334;18.034;2023-05-23T13:49:24;24.00;72.80
9437;DHT22;4757;59.334;18.034;2023-05-23T13:51:54;24.10;72.40
9437;DHT22;4757;59.334;18.034;2023-05-23T13:54:24;23.70;72.40
9437;DHT22;4757;59.334;18.034;2023-05-23T13:56:51;24.00;70.70
9437;DHT22;4757;59.334;18.034;2023-05-23T13:59:18;23.60;70.50
9437;DHT22;4757;59.334;18.034;2023-05-23T14:01:47;23.40;70.20
9437;DHT22;4757;59.334;18.034;2023-05-23T14:04:14;23.90;68.60
9437;DHT22;4757;59.334;18.034;2023-05-23T14:06:42;24.10;68.50
9437;DHT22;4757;59.334;18.034;2023-05-23T14:09:10;24.30;68.10
9437;DHT22;4757;59.334;18.034;2023-05-23T14:11:38;24.40;69.50
9437;DHT22;4757;59.334;18.034;2023-05-23T14:14:06;24.90;68.70
9437;DHT22;4757;59.334;18.034;2023-05-23T14:16:33;24.40;69.00
9437;DHT22;4757;59.334;18.034;2023-05-23T14:19:02;24.10;68.70
9437;DHT22;4757;59.334;18.034;2023-05-23T14:21:30;24.40;68.20
9437;DHT22;4757;59.334;18.034;2023-05-23T14:23:57;24.30;68.70
9437;DHT22;4757;59.334;18.034;2023-05-23T14:26:24;24.30;68.20
9437;DHT22;4757;59.334;18.034;2023-05-23T14:28:52;24.00;68.30
9437;DHT22;4757;59.334;18.034;2023-05-23T14:31:19;23.90;68.20
9437;DHT22;4757;59.334;18.034;2023-05-23T14:33:47;24.20;67.50
9437;DHT22;4757;59.334;18.034;2023-05-23T14:36:18;23.60;67.40
9437;DHT22;4757;59.334;18.034;2023-05-23T14:38:45;23.70;68.50
9437;DHT22;4757;59.334;18.034;2023-05-23T14:41:14;23.90;67.80
9437;DHT22;4757;59.334;18.034;2023-05-23T14:43:42;23.60;68.00
9437;DHT22;4757;59.334;18.034;2023-05-23T14:46:09;23.70;68.20
9437;DHT22;4757;59.334;18.034;2023-05-23T14:48:36;23.50;69.00
9437;DHT22;4757;59.334;18.034;2023-05-23T14:51:04;23.80;68.60
9437;DHT22;4757;59.334;18.034;2023-05-23T14:53:32;23.30;69.10
9437;DHT22;4757;59.334;18.034;2023-05-23T14:56:00;23.60;69.70
9437;DHT22;4757;59.334;18.034;2023-05-23T14:58:29;23.90;68.10
9437;DHT22;4757;59.334;18.034;2023-05-23T15:00:56;23.30;68.70
9437;DHT22;4757;59.334;18.034;2023-05-23T15:03:23;23.10;68.50
9437;DHT22;4757;59.334;18.034;2023-05-23T15:05:51;22.90;68.70
9437;DHT22;4757;59.334;18.034;2023-05-23T15:08:18;22.80;68.80
9437;DHT22;4757;59.334;18.034;2023-05-23T15:10:45;23.10;69.20
9437;DHT22;4757;59.334;18.034;2023-05-23T15:13:12;22.80;69.10
9437;DHT22;4757;59.334;18.034;2023-05-23T15:15:39;22.90;69.20
9437;DHT22;4757;59.334;18.034;2023-05-23T15:18:07;22.70;69.70
9437;DHT22;4757;59.334;18.034;2023-05-23T15:20:37;22.90;69.40
9437;DHT22;4757;59.334;18.034;2023-05-23T15:23:04;22.90;69.20
9437;DHT22;4757;59.334;18.034;2023-05-23T15:25:31;22.90;68.70
9437;DHT22;4757;59.334;18.034;2023-05-23T15:28:15;22.20;68.90
9437;DHT22;4757;59.334;18.034;2023-05-23T15:30:42;22.10;68.70
9437;DHT22;4757;59.334;18.034;2023-05-23T15:33:10;22.10;69.10
9437;DHT22;4757;59.334;18.034;2023-05-23T15:35:38;22.30;68.50
9437;DHT22;4757;59.334;18.034;2023-05-23T15:38:06;22.50;67.90
9437;DHT22;4757;59.334;18.034;2023-05-23T15:40:33;22.20;67.20
9437;DHT22;4757;59.334;18.034;2023-05-23T15:43:00;22.10;67.00
9437;DHT22;4757;59.334;18.034;2023-05-23T15:45:27;22.10;67.90
9437;DHT22;4757;59.334;18.034;2023-05-23T15:47:55;22.10;67.70
9437;DHT22;4757;59.334;18.034;2023-05-23T15:50:23;22.00;69.40
9437;DHT22;4757;59.334;18.034;2023-05-23T15:52:50;21.90;68.50
9437;DHT22;4757;59.334;18.034;2023-05-23T15:55:17;21.90;68.10
9437;DHT22;4757;59.334;18.034;2023-05-23T15:57:47;21.90;67.40
9437;DHT22;4757;59.334;18.034;2023-05-23T16:00:14;22.00;69.20
9437;DHT22;4757;59.334;18.034;2023-05-23T16:02:42;22.10;68.90
9437;DHT22;4757;59.334;18.034;2023-05-23T16:05:09;22.20;69.00
9437;DHT22;4757;59.334;18.034;2023-05-23T16:07:36;21.90;69.60
9437;DHT22;4757;59.334;18.034;2023-05-23T16:10:04;21.50;69.40
9437;DHT22;4757;59.334;18.034;2023-05-23T16:12:31;21.30;69.80
9437;DHT22;4757;59.334;18.034;2023-05-23T16:14:58;21.30;70.00
9437;DHT22;4757;59.334;18.034;2023-05-23T16:17:25;21.30;71.00
9437;DHT22;4757;59.334;18.034;2023-05-23T16:19:52;21.30;71.60
9437;DHT22;4757;59.334;18.034;2023-05-23T16:22:20;21.40;72.50
9437;DHT22;4757;59.334;18.034;2023-05-23T16:24:47;21.60;72.70